createdAt,value
2022-10-17T00:01:00.577Z,1.30
2022-10-17T00:03:28.376Z,0.97
2022-10-17T00:05:56.630Z,1.57
2022-10-17T00:08:25.626Z,1.10
2022-10-17T00:11:02.521Z,1.20
2022-10-17T00:13:30.005Z,1.23
2022-10-17T00:15:58.372Z,1.20
2022-10-17T00:18:25.993Z,1.27
2022-10-17T00:20:53.962Z,1.57
2022-10-17T00:23:21.383Z,1.33
2022-10-17T00:25:58.901Z,1.43
2022-10-17T00:28:26.591Z,1.03
2022-10-17T00:31:03.303Z,1.70
2022-10-17T00:33:31.191Z,1.20
2022-10-17T00:36:14.735Z,1.10
2022-10-17T00:38:44.999Z,1.13
2022-10-17T00:41:15.512Z,1.50
2022-10-17T00:43:51.031Z,1.50
2022-10-17T00:46:19.199Z,1.47
2022-10-17T00:48:48.694Z,1.33
2022-10-17T00:51:19.271Z,1.43
2022-10-17T00:53:47.157Z,1.40
2022-10-17T00:56:15.510Z,1.40
2022-10-17T00:58:44.481Z,1.50
2022-10-17T01:01:12.073Z,1.70
2022-10-17T01:03:39.752Z,1.43
2022-10-17T01:06:07.146Z,1.37
2022-10-17T01:08:34.780Z,1.50
2022-10-17T01:11:05.274Z,1.93
2022-10-17T01:13:52.143Z,1.83
2022-10-17T01:16:49.043Z,1.67
2022-10-17T01:19:36.354Z,1.67
2022-10-17T01:22:14.175Z,1.60
2022-10-17T01:25:23.849Z,1.40
2022-10-17T01:28:05.838Z,1.70
2022-10-17T01:31:09.438Z,2.17
2022-10-17T01:33:53.306Z,1.90
2022-10-17T01:36:59.262Z,1.70
2022-10-17T01:39:34.453Z,2.00
2022-10-17T01:42:24.180Z,1.73
2022-10-17T01:45:03.409Z,1.90
2022-10-17T01:47:33.662Z,1.90
2022-10-17T01:50:12.381Z,1.93
2022-10-17T01:52:52.553Z,1.90
2022-10-17T01:55:27.380Z,1.83
2022-10-17T01:58:01.246Z,2.10
2022-10-17T02:00:31.360Z,1.87
2022-10-17T02:03:04.353Z,1.80
2022-10-17T02:05:39.109Z,1.83
2022-10-17T02:08:07.483Z,1.80
2022-10-17T02:10:47.051Z,2.07
2022-10-17T02:13:14.523Z,1.80
2022-10-17T02:16:23.205Z,1.70
2022-10-17T02:19:11.673Z,2.10
2022-10-17T02:22:00.707Z,1.70
2022-10-17T02:24:52.331Z,1.80
2022-10-17T02:27:43.724Z,1.97
2022-10-17T02:30:32.705Z,1.93
2022-10-17T02:33:06.193Z,1.67
2022-10-17T02:35:37.819Z,1.90
2022-10-17T02:38:08.731Z,2.10
2022-10-17T02:40:38.395Z,1.70
2022-10-17T02:43:05.861Z,1.97
2022-10-17T02:45:36.206Z,1.60
2022-10-17T02:48:05.514Z,2.20
2022-10-17T02:50:45.529Z,1.90
2022-10-17T02:53:17.811Z,2.07
2022-10-17T02:55:53.747Z,2.40
2022-10-17T02:58:25.601Z,2.60
2022-10-17T03:00:53.443Z,2.20
2022-10-17T03:03:29.978Z,2.10
2022-10-17T03:06:01.768Z,2.17
2022-10-17T03:08:29.282Z,2.30
2022-10-17T03:10:57.791Z,2.30
2022-10-17T03:13:27.705Z,2.37
2022-10-17T03:15:57.563Z,2.17
2022-10-17T03:18:25.227Z,2.50
2022-10-17T03:20:57.873Z,3.10
2022-10-17T03:23:25.579Z,2.80
2022-10-17T03:25:53.572Z,2.57
2022-10-17T03:28:21.200Z,2.87
2022-10-17T03:30:48.822Z,2.37
2022-10-17T03:33:16.749Z,2.77
2022-10-17T03:35:44.254Z,2.90
2022-10-17T03:38:11.863Z,2.73
2022-10-17T03:40:39.652Z,3.00
2022-10-17T03:43:07.106Z,2.77
2022-10-17T03:45:34.608Z,3.00
2022-10-17T03:48:02.192Z,3.10
2022-10-17T03:50:30.661Z,3.13
2022-10-17T03:52:59.378Z,3.37
2022-10-17T03:55:26.949Z,3.20
2022-10-17T03:57:54.392Z,3.27
2022-10-17T04:00:23.756Z,3.20
2022-10-17T04:02:57.988Z,3.50
2022-10-17T04:05:26.768Z,3.07
2022-10-17T04:07:54.224Z,3.53
2022-10-17T04:10:29.700Z,3.60
2022-10-17T04:12:57.472Z,3.30
2022-10-17T04:15:24.917Z,3.67
2022-10-17T04:17:53.151Z,3.60
2022-10-17T04:20:20.640Z,3.20
2022-10-17T04:22:48.024Z,3.63
2022-10-17T04:25:15.671Z,3.73
2022-10-17T04:27:46.525Z,4.03
2022-10-17T04:30:14.817Z,4.10
2022-10-17T04:32:42.921Z,4.40
2022-10-17T04:35:23.147Z,3.67
2022-10-17T04:38:01.237Z,3.63
2022-10-17T04:40:28.678Z,4.60
2022-10-17T04:42:56.543Z,4.23
2022-10-17T04:45:31.460Z,4.10
2022-10-17T04:48:03.441Z,4.40
2022-10-17T04:50:30.940Z,4.30
2022-10-17T04:53:17.342Z,4.53
2022-10-17T04:55:45.127Z,4.70
2022-10-17T04:58:12.522Z,4.37
2022-10-17T05:00:40.404Z,4.23
2022-10-17T05:03:15.110Z,4.53
2022-10-17T05:05:43.655Z,4.50
2022-10-17T05:08:13.046Z,4.77
2022-10-17T05:10:42.497Z,5.00
2022-10-17T05:13:11.240Z,5.00
2022-10-17T05:15:38.674Z,4.70
2022-10-17T05:18:06.942Z,5.07
2022-10-17T05:20:35.291Z,5.00
2022-10-17T05:23:02.817Z,4.70
2022-10-17T05:25:36.389Z,5.00
2022-10-17T05:28:03.855Z,5.17
2022-10-17T05:30:35.188Z,5.03
2022-10-17T05:33:06.624Z,4.87
2022-10-17T05:35:34.635Z,5.10
2022-10-17T05:38:02.611Z,5.23
2022-10-17T05:40:32.515Z,4.63
2022-10-17T05:42:59.983Z,4.70
2022-10-17T05:45:27.769Z,5.10
2022-10-17T05:47:55.891Z,4.77
2022-10-17T05:50:25.220Z,4.43
2022-10-17T05:53:19.398Z,4.67
2022-10-17T05:56:01.233Z,4.50
2022-10-17T06:01:31.015Z,5.23
2022-10-17T06:03:58.759Z,4.83
2022-10-17T06:06:26.605Z,5.07
2022-10-17T06:08:54.177Z,5.10
2022-10-17T06:11:28.014Z,4.73
2022-10-17T06:13:55.473Z,5.13
2022-10-17T06:16:25.749Z,5.10
2022-10-17T06:18:53.433Z,5.40
2022-10-17T06:21:26.593Z,5.27
2022-10-17T06:24:02.299Z,4.83
2022-10-17T06:26:33.629Z,5.70
2022-10-17T06:29:02.060Z,4.93
2022-10-17T06:31:35.493Z,5.40
2022-10-17T06:34:05.685Z,5.00
2022-10-17T06:36:33.601Z,4.60
2022-10-17T06:39:03.234Z,4.87
2022-10-17T06:41:37.202Z,5.17
2022-10-17T06:44:11.358Z,4.50
2022-10-17T06:46:57.983Z,5.20
2022-10-17T06:49:28.113Z,5.07
2022-10-17T06:52:20.144Z,5.27
2022-10-17T06:57:57.209Z,4.93
2022-10-17T07:00:51.103Z,6.03
2022-10-17T07:03:19.190Z,6.93
2022-10-17T07:05:52.449Z,6.00
2022-10-17T07:08:20.659Z,5.53
2022-10-17T07:10:48.792Z,6.17
2022-10-17T07:13:18.287Z,5.30
2022-10-17T07:15:46.391Z,4.60
2022-10-17T07:18:15.014Z,5.97
2022-10-17T07:20:42.554Z,5.83
2022-10-17T07:23:10.023Z,4.63
2022-10-17T07:25:40.050Z,4.47
2022-10-17T07:28:09.671Z,4.53
2022-10-17T07:30:38.643Z,4.40
2022-10-17T07:33:12.531Z,4.07
2022-10-17T07:35:43.257Z,4.27
2022-10-17T07:38:11.481Z,4.27
2022-10-17T07:40:39.086Z,4.33
2022-10-17T07:43:07.796Z,5.17
2022-10-17T07:45:35.212Z,4.67
2022-10-17T07:48:02.696Z,4.80
2022-10-17T07:50:33.217Z,4.20
2022-10-17T07:53:00.577Z,4.23
2022-10-17T07:55:28.178Z,5.37
2022-10-17T07:57:56.057Z,4.47
2022-10-17T08:00:23.913Z,4.40
2022-10-17T08:02:51.902Z,4.90
2022-10-17T08:05:19.375Z,4.60
2022-10-17T08:07:47.007Z,4.53
2022-10-17T08:10:16.403Z,4.40
2022-10-17T08:12:43.950Z,4.90
2022-10-17T08:15:11.758Z,4.20
2022-10-17T08:17:39.584Z,4.93
2022-10-17T08:20:07.423Z,4.10
2022-10-17T08:22:35.135Z,4.03
2022-10-17T08:25:02.726Z,4.20
2022-10-17T08:27:30.651Z,4.00
2022-10-17T08:29:58.049Z,4.27
2022-10-17T08:32:28.158Z,3.63
2022-10-17T08:34:56.838Z,5.30
2022-10-17T08:37:24.410Z,4.03
2022-10-17T08:39:51.961Z,4.50
2022-10-17T08:42:49.559Z,4.23
2022-10-17T08:45:23.843Z,3.73
2022-10-17T08:47:59.566Z,4.20
2022-10-17T08:50:45.344Z,4.33
2022-10-17T08:53:44.974Z,4.20
2022-10-17T08:56:25.015Z,4.00
2022-10-17T08:59:14.786Z,4.60
2022-10-17T09:01:58.953Z,4.40
2022-10-17T09:04:41.658Z,4.43
2022-10-17T09:07:21.633Z,4.60
2022-10-17T09:10:17.334Z,3.93
2022-10-17T09:13:20.506Z,4.80
2022-10-17T09:16:07.681Z,4.10
2022-10-17T09:18:43.019Z,4.30
2022-10-17T09:21:23.257Z,4.50
2022-10-17T09:24:08.832Z,4.07
2022-10-17T09:26:39.367Z,4.50
2022-10-17T09:29:16.925Z,3.87
2022-10-17T09:31:51.362Z,4.37
2022-10-17T09:34:20.373Z,4.70
2022-10-17T09:36:49.362Z,3.70
2022-10-17T09:39:32.161Z,4.57
2022-10-17T09:42:01.611Z,4.03
2022-10-17T09:44:41.342Z,4.20
2022-10-17T09:47:24.099Z,3.50
2022-10-17T09:49:52.349Z,5.07
2022-10-17T09:52:42.214Z,3.90
2022-10-17T09:55:24.240Z,4.03
2022-10-17T09:58:06.060Z,4.50
2022-10-17T10:00:42.900Z,4.17
2022-10-17T10:03:13.038Z,4.97
2022-10-17T10:05:41.952Z,4.20
2022-10-17T10:08:17.585Z,4.53
2022-10-17T10:10:45.642Z,3.77
2022-10-17T10:13:13.105Z,4.33
2022-10-17T10:15:43.926Z,4.43
2022-10-17T10:18:26.718Z,4.90
2022-10-17T10:21:06.126Z,4.73
2022-10-17T10:23:34.783Z,3.70
2022-10-17T10:26:04.477Z,3.87
2022-10-17T10:28:36.463Z,4.20
2022-10-17T10:31:07.839Z,3.93
2022-10-17T10:33:41.799Z,3.87
2022-10-17T10:36:10.022Z,4.30
2022-10-17T10:38:42.578Z,3.93
2022-10-17T10:41:11.694Z,4.00
2022-10-17T10:43:43.537Z,4.47
2022-10-17T10:46:28.676Z,4.70
2022-10-17T10:49:00.219Z,4.40
2022-10-17T10:51:38.832Z,3.60
2022-10-17T10:54:16.802Z,4.40
2022-10-17T10:57:00.194Z,4.23
2022-10-17T10:59:33.201Z,4.10
2022-10-17T11:02:13.112Z,4.07
2022-10-17T11:04:49.828Z,4.10
2022-10-17T11:07:22.717Z,3.60
2022-10-17T11:10:05.970Z,3.77
2022-10-17T11:12:45.689Z,4.60
2022-10-17T11:15:19.786Z,4.53
2022-10-17T11:18:07.626Z,6.23
2022-10-17T11:21:00.178Z,5.73
2022-10-17T11:23:40.259Z,3.63
2022-10-17T11:26:16.414Z,3.87
2022-10-17T11:28:43.917Z,4.20
2022-10-17T11:31:16.220Z,3.80
2022-10-17T11:33:53.049Z,4.00
2022-10-17T11:36:26.456Z,3.67
2022-10-17T11:39:05.362Z,3.67
2022-10-17T11:41:47.465Z,2.80
2022-10-17T11:44:34.469Z,3.50
2022-10-17T11:47:31.111Z,3.23
2022-10-17T11:53:16.821Z,3.43
2022-10-17T11:55:45.646Z,3.87
2022-10-17T11:58:31.934Z,3.73
2022-10-17T12:01:17.914Z,3.40
2022-10-17T12:04:07.240Z,3.47
2022-10-17T12:06:47.587Z,3.70
2022-10-17T12:09:34.919Z,3.90
2022-10-17T12:12:04.063Z,3.23
2022-10-17T12:14:46.567Z,3.40
2022-10-17T12:17:23.407Z,3.50
2022-10-17T12:19:51.074Z,3.10
2022-10-17T12:22:28.686Z,3.57
2022-10-17T12:25:04.275Z,3.60
2022-10-17T12:27:46.064Z,3.17
2022-10-17T12:30:16.671Z,3.50
2022-10-17T12:33:07.993Z,3.13
2022-10-17T12:35:37.942Z,3.70
2022-10-17T12:38:17.582Z,3.47
2022-10-17T12:40:49.049Z,3.07
2022-10-17T12:43:17.011Z,2.60
2022-10-17T12:45:46.975Z,2.80
2022-10-17T12:48:34.347Z,2.77
2022-10-17T12:54:00.727Z,2.70
2022-10-17T12:56:49.738Z,2.60
2022-10-17T12:59:22.479Z,2.40
2022-10-17T13:01:54.714Z,2.30
2022-10-17T13:04:22.693Z,2.83
2022-10-17T13:06:54.412Z,2.60
2022-10-17T13:09:25.074Z,2.73
2022-10-17T13:11:54.539Z,2.43
2022-10-17T13:14:23.404Z,2.40
2022-10-17T13:16:55.119Z,2.17
2022-10-17T13:19:25.689Z,2.53
2022-10-17T13:22:06.849Z,2.43
2022-10-17T13:24:37.643Z,2.23
2022-10-17T13:27:21.249Z,2.00
2022-10-17T13:29:48.732Z,2.17
2022-10-17T13:32:16.336Z,2.00
2022-10-17T13:34:43.948Z,2.10
2022-10-17T13:37:15.735Z,2.07
2022-10-17T13:39:55.999Z,1.80
2022-10-17T13:42:32.121Z,1.77
2022-10-17T13:45:00.023Z,1.73
2022-10-17T13:47:29.745Z,2.10
2022-10-17T13:49:58.272Z,2.10
2022-10-17T13:52:30.292Z,2.70
2022-10-17T13:55:20.118Z,2.50
2022-10-17T13:57:47.746Z,2.20
2022-10-17T14:00:23.185Z,1.73
2022-10-17T14:02:50.837Z,1.90
2022-10-17T14:05:20.645Z,1.60
2022-10-17T14:08:14.476Z,1.70
2022-10-17T14:10:45.297Z,2.27
2022-10-17T14:13:34.063Z,1.43
2022-10-17T14:16:04.345Z,2.10
2022-10-17T14:18:36.568Z,1.80
2022-10-17T14:24:13.350Z,2.10
2022-10-17T14:26:52.266Z,1.87
2022-10-17T14:29:29.678Z,1.67
2022-10-17T14:32:08.684Z,1.73
2022-10-17T14:34:40.672Z,1.67
2022-10-17T14:37:31.045Z,1.30
2022-10-17T14:40:00.696Z,1.40
2022-10-17T14:42:28.614Z,1.83
2022-10-17T14:45:03.799Z,1.47
2022-10-17T14:47:43.280Z,1.70
2022-10-17T14:50:11.284Z,1.63
2022-10-17T14:52:39.901Z,1.50
2022-10-17T14:55:28.543Z,2.10
2022-10-17T14:57:56.628Z,1.70
2022-10-17T15:00:24.634Z,1.80
2022-10-17T15:02:54.582Z,1.93
2022-10-17T15:05:23.446Z,1.40
2022-10-17T15:07:51.125Z,1.60
2022-10-17T15:10:33.356Z,1.93
2022-10-17T15:13:26.710Z,1.77
2022-10-17T15:15:52.045Z,1.50
2022-10-17T15:18:19.919Z,1.87
2022-10-17T15:20:49.607Z,1.57
2022-10-17T15:23:23.121Z,2.20
2022-10-17T15:25:50.617Z,1.70
2022-10-17T15:28:17.999Z,1.67
2022-10-17T15:30:45.867Z,1.80
2022-10-17T15:33:13.397Z,1.57
2022-10-17T15:35:42.901Z,1.80
2022-10-17T15:38:17.330Z,1.33
2022-10-17T15:40:45.954Z,1.57
2022-10-17T15:43:17.373Z,1.50
2022-10-17T15:45:47.333Z,2.10
2022-10-17T15:48:29.948Z,1.17
2022-10-17T15:50:58.060Z,1.60
2022-10-17T15:53:25.492Z,1.67
2022-10-17T15:55:53.043Z,1.50
2022-10-17T15:58:20.710Z,1.50
2022-10-17T16:00:48.686Z,1.50
2022-10-17T16:03:16.257Z,1.30
2022-10-17T16:05:43.798Z,1.70
2022-10-17T16:08:11.289Z,1.67
2022-10-17T16:10:40.516Z,1.30
2022-10-17T16:13:17.514Z,2.20
2022-10-17T16:15:44.855Z,1.40
2022-10-17T16:18:12.405Z,1.80
2022-10-17T16:20:39.969Z,1.40
2022-10-17T16:23:08.508Z,1.43
2022-10-17T16:25:36.065Z,1.50
2022-10-17T16:28:04.240Z,1.50
2022-10-17T16:30:32.945Z,1.77
2022-10-17T16:33:00.472Z,1.40
2022-10-17T16:35:33.258Z,1.50
2022-10-17T16:38:05.789Z,1.53
2022-10-17T16:40:33.693Z,1.40
2022-10-17T16:43:01.131Z,1.30
2022-10-17T16:45:28.781Z,1.30
2022-10-17T16:47:56.384Z,1.40
2022-10-17T16:50:24.563Z,1.30
2022-10-17T16:52:52.099Z,1.50
2022-10-17T16:55:19.549Z,1.40
2022-10-17T16:57:49.000Z,1.57
2022-10-17T17:00:17.849Z,1.33
2022-10-17T17:02:48.230Z,1.37
2022-10-17T17:05:15.919Z,1.70
2022-10-17T17:07:43.597Z,1.50
2022-10-17T17:10:11.055Z,1.57
2022-10-17T17:12:38.660Z,1.90
2022-10-17T17:15:06.346Z,1.50
2022-10-17T17:17:49.524Z,1.30
2022-10-17T17:20:19.041Z,1.53
2022-10-17T17:22:46.540Z,1.50
2022-10-17T17:25:14.268Z,1.70
2022-10-17T17:27:41.818Z,1.53
2022-10-17T17:30:09.649Z,1.30
2022-10-17T17:32:37.052Z,1.37
2022-10-17T17:35:05.081Z,2.03
2022-10-17T17:37:32.836Z,1.97
2022-10-17T17:40:00.477Z,1.70
2022-10-17T17:42:28.258Z,1.90
2022-10-17T17:44:55.628Z,1.70
2022-10-17T17:47:23.042Z,2.10
2022-10-17T17:49:50.631Z,1.80
2022-10-17T17:52:18.203Z,2.10
2022-10-17T17:54:45.659Z,1.53
2022-10-17T17:57:13.307Z,1.43
2022-10-17T17:59:41.527Z,1.97
2022-10-17T18:02:10.930Z,1.77
2022-10-17T18:04:38.829Z,2.07
2022-10-17T18:07:06.398Z,1.67
2022-10-17T18:09:33.859Z,1.87
2022-10-17T18:12:01.255Z,1.60
2022-10-17T18:14:28.704Z,1.87
2022-10-17T18:16:56.118Z,2.00
2022-10-17T18:19:24.219Z,1.93
2022-10-17T18:21:51.658Z,1.70
2022-10-17T18:24:19.483Z,1.70
2022-10-17T18:26:47.190Z,2.33
2022-10-17T18:29:15.022Z,2.20
2022-10-17T18:31:43.030Z,1.80
2022-10-17T18:34:10.714Z,2.00
2022-10-17T18:36:38.321Z,2.37
2022-10-17T18:39:06.242Z,2.00
2022-10-17T18:41:34.183Z,2.00
2022-10-17T18:44:05.264Z,2.33
2022-10-17T18:46:40.856Z,2.30
2022-10-17T18:49:14.423Z,2.07
2022-10-17T18:51:43.081Z,2.10
2022-10-17T18:54:17.142Z,2.10
2022-10-17T18:56:45.158Z,2.07
2022-10-17T18:59:12.687Z,1.90
2022-10-17T19:01:40.191Z,1.83
2022-10-17T19:04:07.723Z,1.93
2022-10-17T19:06:35.240Z,2.40
2022-10-17T19:09:05.761Z,2.10
2022-10-17T19:11:34.879Z,2.20
2022-10-17T19:14:04.592Z,2.43
2022-10-17T19:16:37.607Z,2.40
2022-10-17T19:19:10.229Z,2.70
2022-10-17T19:21:38.463Z,2.80
2022-10-17T19:24:08.045Z,2.33
2022-10-17T19:26:37.537Z,2.67
2022-10-17T19:29:06.219Z,2.73
2022-10-17T19:31:38.140Z,2.70
2022-10-17T19:34:05.812Z,2.60
2022-10-17T19:36:34.976Z,2.87
2022-10-17T19:39:05.954Z,3.13
2022-10-17T19:41:33.915Z,2.57
2022-10-17T19:44:01.425Z,3.17
2022-10-17T19:46:30.571Z,2.40
2022-10-17T19:48:58.249Z,2.33
2022-10-17T19:51:26.837Z,2.83
2022-10-17T19:53:56.305Z,2.50
2022-10-17T19:56:25.686Z,2.53
2022-10-17T19:58:54.545Z,2.40
2022-10-17T20:01:29.400Z,2.77
2022-10-17T20:03:57.416Z,2.77
2022-10-17T20:06:25.430Z,2.50
2022-10-17T20:08:53.007Z,2.87
2022-10-17T20:11:24.417Z,2.57
2022-10-17T20:13:53.563Z,2.80
2022-10-17T20:16:26.739Z,2.77
2022-10-17T20:18:56.661Z,3.13
2022-10-17T20:21:35.310Z,3.27
2022-10-17T20:24:05.171Z,2.83
2022-10-17T20:26:38.267Z,2.83
2022-10-17T20:29:11.789Z,8.83
2022-10-17T20:31:40.911Z,4.70
2022-10-17T20:34:12.654Z,3.87
2022-10-17T20:36:40.415Z,5.40
2022-10-17T20:39:09.800Z,3.27
2022-10-17T20:41:37.659Z,2.87
2022-10-17T20:44:06.968Z,4.30
2022-10-17T20:46:37.297Z,4.57
2022-10-17T20:49:07.364Z,2.93
2022-10-17T20:51:35.613Z,3.17
2022-10-17T20:54:03.832Z,3.50
2022-10-17T20:56:32.925Z,3.50
2022-10-17T20:59:03.287Z,4.13
2022-10-17T21:01:33.095Z,3.10
2022-10-17T21:04:21.489Z,3.03
2022-10-17T21:06:49.179Z,3.27
2022-10-17T21:09:16.649Z,3.07
2022-10-17T21:11:44.081Z,3.37
2022-10-17T21:14:12.591Z,3.27
2022-10-17T21:16:41.294Z,4.40
2022-10-17T21:19:10.644Z,3.83
2022-10-17T21:21:41.722Z,4.60
2022-10-17T21:24:14.311Z,3.60
2022-10-17T21:26:43.583Z,4.33
2022-10-17T21:29:13.158Z,3.73
2022-10-17T21:31:43.402Z,5.83
2022-10-17T21:34:21.229Z,4.50
2022-10-17T21:36:48.712Z,3.00
2022-10-17T21:39:16.480Z,3.17
2022-10-17T21:41:44.705Z,3.70
2022-10-17T21:44:14.876Z,3.97
2022-10-17T21:46:43.126Z,3.83
2022-10-17T21:49:15.633Z,4.20
2022-10-17T21:51:44.733Z,3.97
2022-10-17T21:54:12.331Z,4.30
2022-10-17T21:56:41.010Z,4.67
2022-10-17T21:59:08.766Z,4.57
2022-10-17T22:01:41.881Z,4.43
2022-10-17T22:04:12.757Z,4.97
2022-10-17T22:06:42.140Z,4.67
2022-10-17T22:09:16.780Z,3.90
2022-10-17T22:11:47.561Z,4.03
2022-10-17T22:14:17.409Z,4.70
2022-10-17T22:16:46.472Z,5.87
2022-10-17T22:19:16.930Z,5.37
2022-10-17T22:21:45.305Z,4.87
2022-10-17T22:24:14.880Z,4.60
2022-10-17T22:26:43.023Z,4.70
2022-10-17T22:29:10.760Z,5.00
2022-10-17T22:31:38.760Z,5.03
2022-10-17T22:34:07.071Z,4.90
2022-10-17T22:36:35.743Z,4.93
2022-10-17T22:39:04.242Z,4.70
2022-10-17T22:41:31.854Z,4.30
2022-10-17T22:43:59.503Z,4.57
2022-10-17T22:46:27.597Z,4.87
2022-10-17T22:48:55.009Z,5.40
2022-10-17T22:53:55.081Z,5.43
2022-10-17T22:56:23.690Z,5.07
2022-10-17T22:58:52.093Z,4.90
2022-10-17T23:01:22.273Z,5.37
2022-10-17T23:03:50.983Z,5.40
2022-10-17T23:06:19.348Z,5.27
2022-10-17T23:08:47.145Z,22.30
2022-10-17T23:11:14.906Z,10.00
2022-10-17T23:13:42.341Z,5.63
2022-10-17T23:16:10.079Z,4.53
2022-10-17T23:18:38.266Z,5.40
2022-10-17T23:21:06.178Z,5.07
2022-10-17T23:23:33.842Z,4.70
2022-10-17T23:26:07.162Z,5.23
2022-10-17T23:28:36.016Z,5.00
2022-10-17T23:31:10.962Z,5.30
2022-10-17T23:33:41.233Z,5.50
2022-10-17T23:36:10.637Z,5.70
2022-10-17T23:38:39.467Z,5.13
2022-10-17T23:41:07.444Z,5.17
2022-10-17T23:43:34.924Z,5.13
2022-10-17T23:46:03.236Z,5.10
2022-10-17T23:48:31.001Z,5.33
2022-10-17T23:50:58.427Z,5.30
2022-10-17T23:53:26.667Z,5.63
2022-10-17T23:55:54.041Z,4.73
2022-10-17T23:58:21.616Z,5.30
